sensor_id;sensor_type;location;lat;lon;timestamp;P1;durP1;ratioP1;P2;durP2;ratioP2
18574;SDS011;9417;16.484;102.872;2023-06-04T00:01:06;19.52;;;14.98;;
18574;SDS011;9417;16.484;102.872;2023-06-04T00:03:18;22.85;;;15.55;;
18574;SDS011;9417;16.484;102.872;2023-06-04T00:05:26;24.70;;;15.82;;
18574;SDS011;9417;16.484;102.872;2023-06-04T00:07:33;20.60;;;15.45;;
18574;SDS011;9417;16.484;102.872;2023-06-04T00:09:41;21.92;;;16.13;;
18574;SDS011;9417;16.484;102.872;2023-06-04T00:11:50;19.63;;;15.25;;
18574;SDS011;9417;16.484;102.872;2023-06-04T00:13:59;21.25;;;16.00;;
18574;SDS011;9417;16.484;102.872;2023-06-04T00:16:07;22.52;;;16.58;;
18574;SDS011;9417;16.484;102.872;2023-06-04T00:18:14;20.80;;;15.77;;
18574;SDS011;9417;16.484;102.872;2023-06-04T00:20:22;21.33;;;15.68;;
18574;SDS011;9417;16.484;102.872;2023-06-04T00:22:29;23.35;;;16.45;;
18574;SDS011;9417;16.484;102.872;2023-06-04T00:24:37;19.63;;;14.65;;
18574;SDS011;9417;16.484;102.872;2023-06-04T00:26:45;19.90;;;15.13;;
18574;SDS011;9417;16.484;102.872;2023-06-04T00:28:53;22.25;;;16.13;;
18574;SDS011;9417;16.484;102.872;2023-06-04T00:31:04;21.20;;;16.13;;
18574;SDS011;9417;16.484;102.872;2023-06-04T00:33:12;19.83;;;15.05;;
18574;SDS011;9417;16.484;102.872;2023-06-04T00:35:20;22.38;;;16.35;;
18574;SDS011;9417;16.484;102.872;2023-06-04T00:37:27;19.48;;;15.52;;
18574;SDS011;9417;16.484;102.872;2023-06-04T00:39:35;23.02;;;16.02;;
18574;SDS011;9417;16.484;102.872;2023-06-04T00:41:43;20.10;;;16.95;;
18574;SDS011;9417;16.484;102.872;2023-06-04T00:43:50;22.42;;;16.55;;
18574;SDS011;9417;16.484;102.872;2023-06-04T00:46:03;22.88;;;17.83;;
18574;SDS011;9417;16.484;102.872;2023-06-04T00:48:11;23.90;;;16.35;;
18574;SDS011;9417;16.484;102.872;2023-06-04T00:50:19;24.38;;;17.80;;
18574;SDS011;9417;16.484;102.872;2023-06-04T00:52:27;21.30;;;16.45;;
18574;SDS011;9417;16.484;102.872;2023-06-04T00:54:35;22.83;;;17.25;;
18574;SDS011;9417;16.484;102.872;2023-06-04T00:56:42;21.10;;;16.67;;
18574;SDS011;9417;16.484;102.872;2023-06-04T00:58:50;25.55;;;17.17;;
18574;SDS011;9417;16.484;102.872;2023-06-04T01:00:58;21.15;;;17.42;;
18574;SDS011;9417;16.484;102.872;2023-06-04T01:03:13;20.33;;;16.63;;
18574;SDS011;9417;16.484;102.872;2023-06-04T01:05:26;24.92;;;17.02;;
18574;SDS011;9417;16.484;102.872;2023-06-04T01:07:40;26.88;;;17.40;;
18574;SDS011;9417;16.484;102.872;2023-06-04T01:09:50;26.10;;;18.05;;
18574;SDS011;9417;16.484;102.872;2023-06-04T01:11:57;20.67;;;16.58;;
18574;SDS011;9417;16.484;102.872;2023-06-04T01:14:06;22.70;;;16.88;;
18574;SDS011;9417;16.484;102.872;2023-06-04T01:16:14;23.20;;;17.15;;
18574;SDS011;9417;16.484;102.872;2023-06-04T01:18:25;26.00;;;20.55;;
18574;SDS011;9417;16.484;102.872;2023-06-04T01:20:35;21.83;;;17.10;;
18574;SDS011;9417;16.484;102.872;2023-06-04T01:22:50;27.83;;;18.80;;
18574;SDS011;9417;16.484;102.872;2023-06-04T01:25:12;29.10;;;21.55;;
18574;SDS011;9417;16.484;102.872;2023-06-04T01:27:27;28.48;;;22.38;;
18574;SDS011;9417;16.484;102.872;2023-06-04T01:29:36;29.95;;;23.02;;
18574;SDS011;9417;16.484;102.872;2023-06-04T01:31:43;28.25;;;19.73;;
18574;SDS011;9417;16.484;102.872;2023-06-04T01:33:53;28.95;;;21.83;;
18574;SDS011;9417;16.484;102.872;2023-06-04T01:36:02;29.10;;;19.35;;
18574;SDS011;9417;16.484;102.872;2023-06-04T01:38:10;26.60;;;17.52;;
18574;SDS011;9417;16.484;102.872;2023-06-04T01:40:18;24.70;;;18.55;;
18574;SDS011;9417;16.484;102.872;2023-06-04T01:42:25;23.50;;;17.98;;
18574;SDS011;9417;16.484;102.872;2023-06-04T01:44:33;21.25;;;16.40;;
18574;SDS011;9417;16.484;102.872;2023-06-04T01:46:40;22.45;;;16.98;;
18574;SDS011;9417;16.484;102.872;2023-06-04T01:48:48;25.05;;;18.00;;
18574;SDS011;9417;16.484;102.872;2023-06-04T01:50:57;26.27;;;17.23;;
18574;SDS011;9417;16.484;102.872;2023-06-04T01:53:05;22.50;;;16.63;;
18574;SDS011;9417;16.484;102.872;2023-06-04T01:55:14;21.05;;;16.73;;
18574;SDS011;9417;16.484;102.872;2023-06-04T01:57:22;20.35;;;16.25;;
18574;SDS011;9417;16.484;102.872;2023-06-04T01:59:30;23.63;;;16.58;;
18574;SDS011;9417;16.484;102.872;2023-06-04T02:01:37;22.63;;;17.60;;
18574;SDS011;9417;16.484;102.872;2023-06-04T02:03:45;19.42;;;15.68;;
18574;SDS011;9417;16.484;102.872;2023-06-04T02:05:53;21.20;;;17.73;;
18574;SDS011;9417;16.484;102.872;2023-06-04T02:08:02;19.70;;;15.95;;
18574;SDS011;9417;16.484;102.872;2023-06-04T02:10:10;23.38;;;16.02;;
18574;SDS011;9417;16.484;102.872;2023-06-04T02:12:18;21.58;;;17.08;;
18574;SDS011;9417;16.484;102.872;2023-06-04T02:14:25;24.60;;;15.95;;
18574;SDS011;9417;16.484;102.872;2023-06-04T02:16:33;23.30;;;15.43;;
18574;SDS011;9417;16.484;102.872;2023-06-04T02:18:41;22.15;;;15.60;;
18574;SDS011;9417;16.484;102.872;2023-06-04T02:20:49;22.00;;;15.85;;
18574;SDS011;9417;16.484;102.872;2023-06-04T02:22:58;18.65;;;14.48;;
18574;SDS011;9417;16.484;102.872;2023-06-04T02:25:08;19.20;;;14.95;;
18574;SDS011;9417;16.484;102.872;2023-06-04T02:27:15;18.23;;;14.85;;
18574;SDS011;9417;16.484;102.872;2023-06-04T02:29:22;18.25;;;14.55;;
18574;SDS011;9417;16.484;102.872;2023-06-04T02:31:30;20.70;;;16.52;;
18574;SDS011;9417;16.484;102.872;2023-06-04T02:33:38;21.23;;;16.70;;
18574;SDS011;9417;16.484;102.872;2023-06-04T02:35:45;21.63;;;16.33;;
18574;SDS011;9417;16.484;102.872;2023-06-04T02:37:53;22.67;;;15.93;;
18574;SDS011;9417;16.484;102.872;2023-06-04T02:40:02;17.77;;;15.07;;
18574;SDS011;9417;16.484;102.872;2023-06-04T02:42:12;22.90;;;16.00;;
18574;SDS011;9417;16.484;102.872;2023-06-04T02:44:19;20.15;;;14.77;;
18574;SDS011;9417;16.484;102.872;2023-06-04T02:46:29;17.77;;;14.65;;
18574;SDS011;9417;16.484;102.872;2023-06-04T02:48:36;20.58;;;14.32;;
18574;SDS011;9417;16.484;102.872;2023-06-04T02:50:44;19.23;;;13.57;;
18574;SDS011;9417;16.484;102.872;2023-06-04T02:52:51;15.02;;;12.52;;
18574;SDS011;9417;16.484;102.872;2023-06-04T02:54:58;16.48;;;12.07;;
18574;SDS011;9417;16.484;102.872;2023-06-04T02:57:06;19.58;;;12.52;;
18574;SDS011;9417;16.484;102.872;2023-06-04T02:59:15;13.30;;;11.20;;
18574;SDS011;9417;16.484;102.872;2023-06-04T03:01:24;14.77;;;10.55;;
18574;SDS011;9417;16.484;102.872;2023-06-04T03:03:32;14.68;;;10.80;;
18574;SDS011;9417;16.484;102.872;2023-06-04T03:05:39;12.88;;;10.18;;
18574;SDS011;9417;16.484;102.872;2023-06-04T03:07:47;15.23;;;11.00;;
18574;SDS011;9417;16.484;102.872;2023-06-04T03:09:54;12.32;;;10.98;;
18574;SDS011;9417;16.484;102.872;2023-06-04T03:12:02;14.27;;;11.98;;
18574;SDS011;9417;16.484;102.872;2023-06-04T03:14:10;13.30;;;10.32;;
18574;SDS011;9417;16.484;102.872;2023-06-04T03:16:19;17.70;;;10.77;;
18574;SDS011;9417;16.484;102.872;2023-06-04T03:18:27;17.08;;;12.55;;
18574;SDS011;9417;16.484;102.872;2023-06-04T03:20:36;14.85;;;13.27;;
18574;SDS011;9417;16.484;102.872;2023-06-04T03:22:43;15.57;;;13.23;;
18574;SDS011;9417;16.484;102.872;2023-06-04T03:24:51;16.10;;;14.43;;
18574;SDS011;9417;16.484;102.872;2023-06-04T03:26:58;12.85;;;11.32;;
18574;SDS011;9417;16.484;102.872;2023-06-04T03:29:07;13.35;;;11.02;;
18574;SDS011;9417;16.484;102.872;2023-06-04T03:31:14;14.68;;;11.52;;
18574;SDS011;9417;16.484;102.872;2023-06-04T03:33:25;16.73;;;11.55;;
18574;SDS011;9417;16.484;102.872;2023-06-04T03:35:32;15.27;;;11.43;;
18574;SDS011;9417;16.484;102.872;2023-06-04T03:37:40;15.38;;;12.30;;
18574;SDS011;9417;16.484;102.872;2023-06-04T03:39:47;19.52;;;12.77;;
18574;SDS011;9417;16.484;102.872;2023-06-04T03:41:54;13.35;;;11.48;;
18574;SDS011;9417;16.484;102.872;2023-06-04T03:44:03;17.23;;;12.52;;
18574;SDS011;9417;16.484;102.872;2023-06-04T03:46:10;15.38;;;12.48;;
18574;SDS011;9417;16.484;102.872;2023-06-04T03:48:18;19.38;;;11.90;;
18574;SDS011;9417;16.484;102.872;2023-06-04T03:50:27;16.42;;;12.55;;
18574;SDS011;9417;16.484;102.872;2023-06-04T03:52:35;14.20;;;11.02;;
18574;SDS011;9417;16.484;102.872;2023-06-04T03:54:43;14.75;;;11.02;;
18574;SDS011;9417;16.484;102.872;2023-06-04T03:56:51;15.38;;;10.98;;
18574;SDS011;9417;16.484;102.872;2023-06-04T03:58:59;15.75;;;11.20;;
18574;SDS011;9417;16.484;102.872;2023-06-04T04:01:07;17.17;;;11.15;;
18574;SDS011;9417;16.484;102.872;2023-06-04T04:03:14;15.48;;;11.20;;
18574;SDS011;9417;16.484;102.872;2023-06-04T04:05:23;17.08;;;11.63;;
18574;SDS011;9417;16.484;102.872;2023-06-04T04:07:32;17.00;;;11.35;;
18574;SDS011;9417;16.484;102.872;2023-06-04T04:09:40;14.90;;;10.57;;
18574;SDS011;9417;16.484;102.872;2023-06-04T04:11:48;12.27;;;10.57;;
18574;SDS011;9417;16.484;102.872;2023-06-04T04:13:56;14.85;;;10.13;;
18574;SDS011;9417;16.484;102.872;2023-06-04T04:16:04;14.20;;;11.05;;
18574;SDS011;9417;16.484;102.872;2023-06-04T04:18:11;16.05;;;11.05;;
18574;SDS011;9417;16.484;102.872;2023-06-04T04:20:20;15.15;;;11.23;;
18574;SDS011;9417;16.484;102.872;2023-06-04T04:22:39;13.38;;;10.75;;
18574;SDS011;9417;16.484;102.872;2023-06-04T04:24:48;13.60;;;10.13;;
18574;SDS011;9417;16.484;102.872;2023-06-04T04:26:56;11.25;;;9.45;;
18574;SDS011;9417;16.484;102.872;2023-06-04T04:29:04;28.15;;;24.58;;
18574;SDS011;9417;16.484;102.872;2023-06-04T04:31:13;13.75;;;10.38;;
18574;SDS011;9417;16.484;102.872;2023-06-04T04:33:21;13.32;;;11.70;;
18574;SDS011;9417;16.484;102.872;2023-06-04T04:35:30;14.77;;;10.45;;
18574;SDS011;9417;16.484;102.872;2023-06-04T04:37:41;16.10;;;11.23;;
18574;SDS011;9417;16.484;102.872;2023-06-04T04:39:51;13.57;;;10.73;;
18574;SDS011;9417;16.484;102.872;2023-06-04T04:42:00;11.73;;;10.23;;
18574;SDS011;9417;16.484;102.872;2023-06-04T04:44:07;13.07;;;10.98;;
18574;SDS011;9417;16.484;102.872;2023-06-04T04:46:15;15.15;;;11.10;;
18574;SDS011;9417;16.484;102.872;2023-06-04T04:48:23;12.70;;;11.23;;
18574;SDS011;9417;16.484;102.872;2023-06-04T04:50:30;14.05;;;11.20;;
18574;SDS011;9417;16.484;102.872;2023-06-04T04:52:39;14.50;;;10.90;;
18574;SDS011;9417;16.484;102.872;2023-06-04T04:54:48;14.07;;;11.55;;
18574;SDS011;9417;16.484;102.872;2023-06-04T04:57:01;15.98;;;11.68;;
18574;SDS011;9417;16.484;102.872;2023-06-04T04:59:19;14.93;;;11.30;;
18574;SDS011;9417;16.484;102.872;2023-06-04T05:01:27;13.50;;;10.60;;
18574;SDS011;9417;16.484;102.872;2023-06-04T05:03:36;12.75;;;10.95;;
18574;SDS011;9417;16.484;102.872;2023-06-04T05:05:45;16.38;;;11.38;;
18574;SDS011;9417;16.484;102.872;2023-06-04T05:07:55;19.95;;;10.68;;
18574;SDS011;9417;16.484;102.872;2023-06-04T05:10:08;12.43;;;10.90;;
18574;SDS011;9417;16.484;102.872;2023-06-04T05:12:17;16.98;;;15.20;;
18574;SDS011;9417;16.484;102.872;2023-06-04T05:14:25;17.70;;;15.88;;
18574;SDS011;9417;16.484;102.872;2023-06-04T05:16:33;16.25;;;14.85;;
18574;SDS011;9417;16.484;102.872;2023-06-04T05:18:45;12.40;;;9.80;;
18574;SDS011;9417;16.484;102.872;2023-06-04T05:20:58;10.60;;;9.50;;
18574;SDS011;9417;16.484;102.872;2023-06-04T05:23:12;13.23;;;11.80;;
18574;SDS011;9417;16.484;102.872;2023-06-04T05:25:22;14.02;;;12.27;;
18574;SDS011;9417;16.484;102.872;2023-06-04T05:27:31;14.20;;;12.70;;
18574;SDS011;9417;16.484;102.872;2023-06-04T05:29:40;13.05;;;11.73;;
18574;SDS011;9417;16.484;102.872;2023-06-04T05:31:48;14.88;;;12.70;;
18574;SDS011;9417;16.484;102.872;2023-06-04T05:33:57;12.52;;;10.38;;
18574;SDS011;9417;16.484;102.872;2023-06-04T05:36:07;14.30;;;12.85;;
18574;SDS011;9417;16.484;102.872;2023-06-04T05:38:23;12.13;;;10.73;;
18574;SDS011;9417;16.484;102.872;2023-06-04T05:40:39;14.30;;;10.82;;
18574;SDS011;9417;16.484;102.872;2023-06-04T05:42:47;16.00;;;11.15;;
18574;SDS011;9417;16.484;102.872;2023-06-04T05:44:55;14.93;;;11.13;;
18574;SDS011;9417;16.484;102.872;2023-06-04T05:47:02;12.48;;;11.25;;
18574;SDS011;9417;16.484;102.872;2023-06-04T05:49:11;15.85;;;11.75;;
18574;SDS011;9417;16.484;102.872;2023-06-04T05:51:18;11.70;;;10.38;;
18574;SDS011;9417;16.484;102.872;2023-06-04T05:53:27;11.05;;;8.88;;
18574;SDS011;9417;16.484;102.872;2023-06-04T05:55:34;11.90;;;8.95;;
18574;SDS011;9417;16.484;102.872;2023-06-04T05:57:42;11.60;;;9.35;;
18574;SDS011;9417;16.484;102.872;2023-06-04T05:59:50;18.95;;;15.07;;
18574;SDS011;9417;16.484;102.872;2023-06-04T06:01:58;13.60;;;11.65;;
18574;SDS011;9417;16.484;102.872;2023-06-04T06:04:06;12.38;;;11.18;;
18574;SDS011;9417;16.484;102.872;2023-06-04T06:06:14;14.73;;;11.45;;
18574;SDS011;9417;16.484;102.872;2023-06-04T06:08:22;14.00;;;10.65;;
18574;SDS011;9417;16.484;102.872;2023-06-04T06:10:32;16.52;;;9.68;;
18574;SDS011;9417;16.484;102.872;2023-06-04T06:12:40;13.07;;;9.82;;
18574;SDS011;9417;16.484;102.872;2023-06-04T06:14:47;14.88;;;10.00;;
18574;SDS011;9417;16.484;102.872;2023-06-04T06:16:54;10.43;;;9.32;;
18574;SDS011;9417;16.484;102.872;2023-06-04T06:19:02;10.93;;;9.90;;
18574;SDS011;9417;16.484;102.872;2023-06-04T06:21:10;11.32;;;9.35;;
18574;SDS011;9417;16.484;102.872;2023-06-04T06:23:17;13.38;;;10.02;;
18574;SDS011;9417;16.484;102.872;2023-06-04T06:25:27;11.23;;;9.55;;
18574;SDS011;9417;16.484;102.872;2023-06-04T06:27:42;10.52;;;9.48;;
18574;SDS011;9417;16.484;102.872;2023-06-04T06:31:58;13.15;;;9.05;;
18574;SDS011;9417;16.484;102.872;2023-06-04T06:34:05;10.57;;;9.48;;
18574;SDS011;9417;16.484;102.872;2023-06-04T06:36:13;10.80;;;9.70;;
18574;SDS011;9417;16.484;102.872;2023-06-04T06:38:22;12.18;;;9.50;;
18574;SDS011;9417;16.484;102.872;2023-06-04T06:40:30;12.43;;;9.93;;
18574;SDS011;9417;16.484;102.872;2023-06-04T06:42:37;10.52;;;9.43;;
18574;SDS011;9417;16.484;102.872;2023-06-04T06:44:47;11.88;;;9.50;;
18574;SDS011;9417;16.484;102.872;2023-06-04T06:46:54;13.95;;;10.00;;
18574;SDS011;9417;16.484;102.872;2023-06-04T06:49:02;14.55;;;10.82;;
18574;SDS011;9417;16.484;102.872;2023-06-04T06:51:09;11.70;;;10.35;;
18574;SDS011;9417;16.484;102.872;2023-06-04T06:53:17;12.52;;;10.00;;
18574;SDS011;9417;16.484;102.872;2023-06-04T06:55:24;12.90;;;9.68;;
18574;SDS011;9417;16.484;102.872;2023-06-04T06:57:32;12.32;;;9.73;;
18574;SDS011;9417;16.484;102.872;2023-06-04T06:59:39;11.48;;;9.75;;
18574;SDS011;9417;16.484;102.872;2023-06-04T07:01:49;13.57;;;9.70;;
18574;SDS011;9417;16.484;102.872;2023-06-04T07:03:56;12.25;;;9.93;;
18574;SDS011;9417;16.484;102.872;2023-06-04T07:06:04;14.32;;;10.07;;
18574;SDS011;9417;16.484;102.872;2023-06-04T07:08:11;11.20;;;9.63;;
18574;SDS011;9417;16.484;102.872;2023-06-04T07:10:18;9.88;;;8.55;;
18574;SDS011;9417;16.484;102.872;2023-06-04T07:12:26;11.45;;;8.30;;
18574;SDS011;9417;16.484;102.872;2023-06-04T07:14:33;9.43;;;8.48;;
18574;SDS011;9417;16.484;102.872;2023-06-04T07:16:40;12.55;;;8.68;;
18574;SDS011;9417;16.484;102.872;2023-06-04T07:18:50;11.68;;;8.43;;
18574;SDS011;9417;16.484;102.872;2023-06-04T07:20:57;9.77;;;8.48;;
18574;SDS011;9417;16.484;102.872;2023-06-04T07:23:05;11.63;;;9.40;;
18574;SDS011;9417;16.484;102.872;2023-06-04T07:25:12;12.27;;;9.20;;
18574;SDS011;9417;16.484;102.872;2023-06-04T07:27:22;10.18;;;9.10;;
18574;SDS011;9417;16.484;102.872;2023-06-04T07:29:30;14.13;;;9.48;;
18574;SDS011;9417;16.484;102.872;2023-06-04T07:31:37;10.55;;;9.52;;
18574;SDS011;9417;16.484;102.872;2023-06-04T07:33:45;14.10;;;10.07;;
18574;SDS011;9417;16.484;102.872;2023-06-04T07:35:54;11.70;;;10.30;;
18574;SDS011;9417;16.484;102.872;2023-06-04T07:38:01;15.63;;;11.18;;
18574;SDS011;9417;16.484;102.872;2023-06-04T07:40:09;12.82;;;10.50;;
18574;SDS011;9417;16.484;102.872;2023-06-04T07:42:18;10.95;;;9.70;;
18574;SDS011;9417;16.484;102.872;2023-06-04T07:44:25;14.57;;;10.70;;
18574;SDS011;9417;16.484;102.872;2023-06-04T07:46:33;13.60;;;10.20;;
18574;SDS011;9417;16.484;102.872;2023-06-04T07:48:40;13.27;;;10.32;;
18574;SDS011;9417;16.484;102.872;2023-06-04T07:50:48;14.40;;;10.15;;
18574;SDS011;9417;16.484;102.872;2023-06-04T07:52:58;15.48;;;12.20;;
18574;SDS011;9417;16.484;102.872;2023-06-04T07:55:06;14.80;;;11.00;;
18574;SDS011;9417;16.484;102.872;2023-06-04T07:57:14;14.77;;;10.43;;
18574;SDS011;9417;16.484;102.872;2023-06-04T07:59:21;22.40;;;15.38;;
18574;SDS011;9417;16.484;102.872;2023-06-04T08:01:29;20.58;;;17.10;;
18574;SDS011;9417;16.484;102.872;2023-06-04T08:03:36;21.65;;;14.38;;
18574;SDS011;9417;16.484;102.872;2023-06-04T08:05:45;20.90;;;17.15;;
18574;SDS011;9417;16.484;102.872;2023-06-04T08:07:52;26.80;;;19.42;;
18574;SDS011;9417;16.484;102.872;2023-06-04T08:10:02;24.85;;;17.80;;
18574;SDS011;9417;16.484;102.872;2023-06-04T08:12:10;19.60;;;16.75;;
18574;SDS011;9417;16.484;102.872;2023-06-04T08:14:17;18.60;;;15.75;;
18574;SDS011;9417;16.484;102.872;2023-06-04T08:16:26;19.13;;;15.55;;
18574;SDS011;9417;16.484;102.872;2023-06-04T08:18:33;19.00;;;15.07;;
18574;SDS011;9417;16.484;102.872;2023-06-04T08:20:43;18.95;;;15.07;;
18574;SDS011;9417;16.484;102.872;2023-06-04T08:22:50;17.40;;;14.07;;
18574;SDS011;9417;16.484;102.872;2023-06-04T08:24:58;19.48;;;16.50;;
18574;SDS011;9417;16.484;102.872;2023-06-04T08:27:07;22.15;;;15.82;;
18574;SDS011;9417;16.484;102.872;2023-06-04T08:29:14;17.45;;;14.00;;
18574;SDS011;9417;16.484;102.872;2023-06-04T08:31:22;15.75;;;13.73;;
18574;SDS011;9417;16.484;102.872;2023-06-04T08:33:29;19.63;;;12.80;;
18574;SDS011;9417;16.484;102.872;2023-06-04T08:35:36;15.20;;;12.13;;
18574;SDS011;9417;16.484;102.872;2023-06-04T08:37:43;15.27;;;11.73;;
18574;SDS011;9417;16.484;102.872;2023-06-04T08:39:51;15.07;;;10.68;;
18574;SDS011;9417;16.484;102.872;2023-06-04T08:42:00;11.73;;;10.35;;
18574;SDS011;9417;16.484;102.872;2023-06-04T08:44:11;12.75;;;10.27;;
18574;SDS011;9417;16.484;102.872;2023-06-04T08:46:21;13.98;;;11.02;;
18574;SDS011;9417;16.484;102.872;2023-06-04T08:48:31;15.10;;;11.73;;
18574;SDS011;9417;16.484;102.872;2023-06-04T08:50:39;16.35;;;11.32;;
18574;SDS011;9417;16.484;102.872;2023-06-04T08:52:49;15.52;;;10.77;;
18574;SDS011;9417;16.484;102.872;2023-06-04T08:54:58;13.20;;;9.90;;
18574;SDS011;9417;16.484;102.872;2023-06-04T08:57:07;11.27;;;10.05;;
18574;SDS011;9417;16.484;102.872;2023-06-04T08:59:17;13.93;;;9.93;;
18574;SDS011;9417;16.484;102.872;2023-06-04T09:01:25;13.57;;;10.52;;
18574;SDS011;9417;16.484;102.872;2023-06-04T09:03:32;14.32;;;9.93;;
18574;SDS011;9417;16.484;102.872;2023-06-04T09:05:42;13.90;;;10.85;;
18574;SDS011;9417;16.484;102.872;2023-06-04T09:07:53;13.55;;;10.20;;
18574;SDS011;9417;16.484;102.872;2023-06-04T09:10:07;14.23;;;10.25;;
18574;SDS011;9417;16.484;102.872;2023-06-04T09:12:17;13.68;;;9.40;;
18574;SDS011;9417;16.484;102.872;2023-06-04T09:14:30;10.55;;;9.15;;
18574;SDS011;9417;16.484;102.872;2023-06-04T09:16:45;9.93;;;8.93;;
18574;SDS011;9417;16.484;102.872;2023-06-04T09:18:53;11.80;;;8.98;;
18574;SDS011;9417;16.484;102.872;2023-06-04T09:21:01;11.02;;;9.63;;
18574;SDS011;9417;16.484;102.872;2023-06-04T09:23:13;13.30;;;9.70;;
18574;SDS011;9417;16.484;102.872;2023-06-04T09:25:21;12.93;;;9.85;;
18574;SDS011;9417;16.484;102.872;2023-06-04T09:27:37;15.88;;;9.20;;
18574;SDS011;9417;16.484;102.872;2023-06-04T09:29:53;9.27;;;8.38;;
18574;SDS011;9417;16.484;102.872;2023-06-04T09:32:02;12.02;;;9.35;;
18574;SDS011;9417;16.484;102.872;2023-06-04T09:34:09;11.38;;;9.63;;
18574;SDS011;9417;16.484;102.872;2023-06-04T09:36:17;12.30;;;9.63;;
18574;SDS011;9417;16.484;102.872;2023-06-04T09:38:32;13.35;;;10.32;;
18574;SDS011;9417;16.484;102.872;2023-06-04T09:40:43;14.77;;;10.13;;
18574;SDS011;9417;16.484;102.872;2023-06-04T09:42:52;16.33;;;10.13;;
18574;SDS011;9417;16.484;102.872;2023-06-04T09:45:01;11.48;;;10.00;;
18574;SDS011;9417;16.484;102.872;2023-06-04T09:47:09;27.00;;;18.33;;
18574;SDS011;9417;16.484;102.872;2023-06-04T09:49:16;29.08;;;20.98;;
18574;SDS011;9417;16.484;102.872;2023-06-04T09:51:24;33.33;;;23.02;;
18574;SDS011;9417;16.484;102.872;2023-06-04T09:53:31;31.48;;;23.92;;
18574;SDS011;9417;16.484;102.872;2023-06-04T09:55:39;19.60;;;13.50;;
18574;SDS011;9417;16.484;102.872;2023-06-04T09:57:46;21.58;;;13.25;;
18574;SDS011;9417;16.484;102.872;2023-06-04T09:59:55;16.70;;;11.43;;
18574;SDS011;9417;16.484;102.872;2023-06-04T10:02:14;12.68;;;10.13;;
18574;SDS011;9417;16.484;102.872;2023-06-04T10:04:25;16.45;;;9.45;;
18574;SDS011;9417;16.484;102.872;2023-06-04T10:06:34;14.10;;;7.47;;
18574;SDS011;9417;16.484;102.872;2023-06-04T10:08:42;15.55;;;8.20;;
18574;SDS011;9417;16.484;102.872;2023-06-04T10:10:51;11.80;;;6.78;;
18574;SDS011;9417;16.484;102.872;2023-06-04T10:13:01;11.65;;;5.60;;
18574;SDS011;9417;16.484;102.872;2023-06-04T10:15:11;10.35;;;5.40;;
18574;SDS011;9417;16.484;102.872;2023-06-04T10:17:21;12.13;;;5.45;;
18574;SDS011;9417;16.484;102.872;2023-06-04T10:19:31;7.57;;;3.50;;
18574;SDS011;9417;16.484;102.872;2023-06-04T10:21:40;4.13;;;3.03;;
18574;SDS011;9417;16.484;102.872;2023-06-04T10:23:49;7.20;;;3.00;;
18574;SDS011;9417;16.484;102.872;2023-06-04T10:25:57;3.38;;;2.67;;
18574;SDS011;9417;16.484;102.872;2023-06-04T10:28:04;5.95;;;3.50;;
18574;SDS011;9417;16.484;102.872;2023-06-04T10:30:12;6.50;;;3.60;;
18574;SDS011;9417;16.484;102.872;2023-06-04T10:32:21;3.60;;;2.38;;
18574;SDS011;9417;16.484;102.872;2023-06-04T10:34:32;6.15;;;2.95;;
18574;SDS011;9417;16.484;102.872;2023-06-04T10:36:43;5.00;;;3.13;;
18574;SDS011;9417;16.484;102.872;2023-06-04T10:38:51;6.60;;;3.38;;
18574;SDS011;9417;16.484;102.872;2023-06-04T10:41:00;7.07;;;3.22;;
18574;SDS011;9417;16.484;102.872;2023-06-04T10:43:20;9.43;;;4.57;;
18574;SDS011;9417;16.484;102.872;2023-06-04T10:45:28;6.85;;;3.45;;
18574;SDS011;9417;16.484;102.872;2023-06-04T10:47:38;8.68;;;3.72;;
18574;SDS011;9417;16.484;102.872;2023-06-04T10:49:47;8.30;;;4.43;;
18574;SDS011;9417;16.484;102.872;2023-06-04T10:51:55;6.40;;;4.35;;
18574;SDS011;9417;16.484;102.872;2023-06-04T10:54:06;9.07;;;4.95;;
18574;SDS011;9417;16.484;102.872;2023-06-04T10:56:24;7.32;;;4.90;;
18574;SDS011;9417;16.484;102.872;2023-06-04T10:58:32;9.88;;;5.57;;
18574;SDS011;9417;16.484;102.872;2023-06-04T11:00:40;8.82;;;5.28;;
18574;SDS011;9417;16.484;102.872;2023-06-04T11:02:52;6.68;;;4.97;;
18574;SDS011;9417;16.484;102.872;2023-06-04T11:05:01;6.18;;;5.28;;
18574;SDS011;9417;16.484;102.872;2023-06-04T11:07:12;8.90;;;5.00;;
18574;SDS011;9417;16.484;102.872;2023-06-04T11:09:20;9.30;;;5.95;;
18574;SDS011;9417;16.484;102.872;2023-06-04T11:11:27;8.73;;;6.20;;
18574;SDS011;9417;16.484;102.872;2023-06-04T11:13:35;9.95;;;5.80;;
18574;SDS011;9417;16.484;102.872;2023-06-04T11:15:42;8.63;;;5.75;;
18574;SDS011;9417;16.484;102.872;2023-06-04T11:17:54;15.60;;;6.28;;
18574;SDS011;9417;16.484;102.872;2023-06-04T11:20:02;11.07;;;7.07;;
18574;SDS011;9417;16.484;102.872;2023-06-04T11:22:10;9.43;;;6.88;;
18574;SDS011;9417;16.484;102.872;2023-06-04T11:24:18;10.27;;;6.72;;
18574;SDS011;9417;16.484;102.872;2023-06-04T11:26:29;11.80;;;6.60;;
18574;SDS011;9417;16.484;102.872;2023-06-04T11:28:41;10.73;;;7.20;;
18574;SDS011;9417;16.484;102.872;2023-06-04T11:30:58;10.20;;;7.30;;
18574;SDS011;9417;16.484;102.872;2023-06-04T11:33:11;11.20;;;8.00;;
18574;SDS011;9417;16.484;102.872;2023-06-04T11:35:18;14.43;;;10.90;;
18574;SDS011;9417;16.484;102.872;2023-06-04T11:37:26;13.13;;;10.45;;
18574;SDS011;9417;16.484;102.872;2023-06-04T11:39:36;11.98;;;8.55;;
18574;SDS011;9417;16.484;102.872;2023-06-04T11:41:44;10.27;;;8.45;;
18574;SDS011;9417;16.484;102.872;2023-06-04T11:43:52;17.80;;;12.25;;
18574;SDS011;9417;16.484;102.872;2023-06-04T11:46:05;22.48;;;15.85;;
18574;SDS011;9417;16.484;102.872;2023-06-04T11:48:15;22.05;;;15.32;;
18574;SDS011;9417;16.484;102.872;2023-06-04T11:50:23;18.10;;;13.63;;
18574;SDS011;9417;16.484;102.872;2023-06-04T11:52:33;24.42;;;16.40;;
18574;SDS011;9417;16.484;102.872;2023-06-04T11:54:40;28.95;;;19.25;;
18574;SDS011;9417;16.484;102.872;2023-06-04T11:56:48;28.40;;;19.08;;
18574;SDS011;9417;16.484;102.872;2023-06-04T11:58:57;20.52;;;12.65;;
18574;SDS011;9417;16.484;102.872;2023-06-04T12:01:04;20.50;;;13.82;;
18574;SDS011;9417;16.484;102.872;2023-06-04T12:03:12;22.63;;;14.30;;
18574;SDS011;9417;16.484;102.872;2023-06-04T12:05:21;19.40;;;14.23;;
18574;SDS011;9417;16.484;102.872;2023-06-04T12:07:29;16.63;;;13.18;;
18574;SDS011;9417;16.484;102.872;2023-06-04T12:09:37;19.52;;;13.50;;
18574;SDS011;9417;16.484;102.872;2023-06-04T12:11:44;17.55;;;12.20;;
18574;SDS011;9417;16.484;102.872;2023-06-04T12:13:52;18.75;;;10.85;;
18574;SDS011;9417;16.484;102.872;2023-06-04T12:16:00;18.60;;;10.23;;
18574;SDS011;9417;16.484;102.872;2023-06-04T12:18:07;17.63;;;9.98;;
18574;SDS011;9417;16.484;102.872;2023-06-04T12:20:17;15.75;;;9.70;;
18574;SDS011;9417;16.484;102.872;2023-06-04T12:22:24;11.48;;;7.28;;
18574;SDS011;9417;16.484;102.872;2023-06-04T12:24:32;11.85;;;7.65;;
18574;SDS011;9417;16.484;102.872;2023-06-04T12:26:41;10.85;;;7.53;;
18574;SDS011;9417;16.484;102.872;2023-06-04T12:28:58;12.23;;;8.38;;